createdAt,value
2022-11-12T00:02:31.307Z,968.42
2022-11-12T00:05:17.244Z,969.22
2022-11-12T00:08:03.481Z,962.17
2022-11-12T00:10:48.999Z,962.80
2022-11-12T00:13:34.446Z,966.08
2022-11-12T00:16:19.945Z,967.78
2022-11-12T00:19:05.526Z,963.25
2022-11-12T00:21:50.914Z,965.50
2022-11-12T00:24:36.465Z,962.53
2022-11-12T00:27:21.947Z,974.10
2022-11-12T00:30:08.134Z,967.93
2022-11-12T00:32:53.501Z,973.15
2022-11-12T00:35:38.749Z,976.13
2022-11-12T00:38:24.435Z,968.63
2022-11-12T00:41:09.881Z,973.15
2022-11-12T00:43:55.361Z,966.60
2022-11-12T00:46:41.018Z,962.45
2022-11-12T00:49:26.312Z,965.15
2022-11-12T00:52:11.893Z,962.53
2022-11-12T00:54:57.157Z,956.45
2022-11-12T00:57:42.546Z,964.50
2022-11-12T01:00:27.958Z,964.33
2022-11-12T01:03:13.388Z,968.42
2022-11-12T01:06:13.541Z,964.23
2022-11-12T01:08:58.903Z,962.55
2022-11-12T01:11:44.347Z,968.63
2022-11-12T01:14:29.826Z,963.78
2022-11-12T01:17:15.221Z,975.43
2022-11-12T01:20:00.717Z,966.17
2022-11-12T01:22:46.146Z,967.13
2022-11-12T01:25:31.854Z,971.05
2022-11-12T01:28:17.234Z,970.72
2022-11-12T01:31:17.945Z,970.45
2022-11-12T01:34:06.654Z,968.85
2022-11-12T01:36:51.899Z,968.88
2022-11-12T01:39:37.792Z,975.33
2022-11-12T01:42:26.097Z,977.42
2022-11-12T01:45:15.895Z,979.90
2022-11-12T01:48:02.213Z,975.30
2022-11-12T01:50:48.042Z,976.05
2022-11-12T01:53:41.925Z,979.33
2022-11-12T01:56:30.735Z,981.75
2022-11-12T01:59:29.502Z,979.20
2022-11-12T02:02:15.073Z,980.70
2022-11-12T02:05:01.666Z,976.45
2022-11-12T02:07:48.721Z,980.10
2022-11-12T02:10:39.363Z,978.75
2022-11-12T02:13:43.306Z,981.30
2022-11-12T02:16:37.366Z,978.33
2022-11-12T02:19:22.817Z,982.60
2022-11-12T02:22:07.969Z,973.92
2022-11-12T02:24:53.509Z,977.58
2022-11-12T02:27:39.466Z,968.22
2022-11-12T02:30:46.640Z,980.50
2022-11-12T02:33:32.178Z,980.53
2022-11-12T02:36:18.146Z,974.67
2022-11-12T02:39:04.013Z,975.47
2022-11-12T02:41:49.352Z,973.58
2022-11-12T02:44:34.970Z,973.72
2022-11-12T02:47:20.206Z,983.08
2022-11-12T02:50:06.204Z,976.50
2022-11-12T02:52:51.756Z,983.93
2022-11-12T02:55:37.223Z,974.45
2022-11-12T02:58:22.887Z,977.27
2022-11-12T03:01:08.305Z,978.38
2022-11-12T03:03:53.941Z,982.70
2022-11-12T03:06:39.863Z,979.40
2022-11-12T03:09:25.311Z,988.00
2022-11-12T03:12:10.931Z,986.53
2022-11-12T03:14:56.313Z,982.58
2022-11-12T03:17:41.719Z,988.20
2022-11-12T03:20:27.680Z,990.90
2022-11-12T03:23:13.012Z,979.95
2022-11-12T03:25:58.890Z,982.75
2022-11-12T03:28:44.725Z,981.88
2022-11-12T03:31:30.320Z,981.85
2022-11-12T03:34:15.714Z,983.33
2022-11-12T03:37:01.314Z,980.80
2022-11-12T03:39:46.711Z,984.22
2022-11-12T03:42:32.155Z,989.97
2022-11-12T03:45:19.342Z,992.10
2022-11-12T03:48:05.098Z,992.10
2022-11-12T03:50:50.310Z,1001.20
2022-11-12T03:53:35.731Z,993.00
2022-11-12T03:56:21.333Z,988.40
2022-11-12T03:59:06.863Z,988.80
2022-11-12T04:01:52.314Z,997.90
2022-11-12T04:04:56.211Z,997.80
2022-11-12T04:08:00.627Z,990.47
2022-11-12T04:10:46.417Z,993.53
2022-11-12T04:13:31.911Z,993.83
2022-11-12T04:16:40.811Z,992.00
2022-11-12T04:19:44.826Z,1001.55
2022-11-12T04:22:30.661Z,1000.63
2022-11-12T04:25:34.670Z,995.95
2022-11-12T04:28:20.250Z,994.75
2022-11-12T04:31:05.607Z,997.85
2022-11-12T04:33:51.139Z,1001.63
2022-11-12T04:36:36.628Z,997.70
2022-11-12T04:39:22.115Z,1003.28
2022-11-12T04:42:27.802Z,1005.45
2022-11-12T04:45:13.467Z,1001.92
2022-11-12T04:47:59.084Z,1003.78
2022-11-12T04:50:47.430Z,998.25
2022-11-12T04:53:32.728Z,1007.25
2022-11-12T04:56:18.118Z,1010.28
2022-11-12T04:59:03.727Z,1020.53
2022-11-12T05:01:49.203Z,1034.85
2022-11-12T05:04:34.720Z,1030.75
2022-11-12T05:07:20.295Z,1016.60
2022-11-12T05:10:05.922Z,1036.80
2022-11-12T05:12:51.458Z,1038.70
2022-11-12T05:15:36.979Z,1043.68
2022-11-12T05:18:23.081Z,1054.38
2022-11-12T05:21:26.823Z,1054.47
2022-11-12T05:24:33.733Z,1061.05
2022-11-12T05:27:21.014Z,1076.78
2022-11-12T05:30:07.806Z,1075.47
2022-11-12T05:32:53.519Z,1062.05
2022-11-12T05:35:38.835Z,1061.57
2022-11-12T05:38:24.584Z,1065.32
2022-11-12T05:41:10.233Z,1108.97
2022-11-12T05:43:55.872Z,1109.90
2022-11-12T05:46:41.398Z,1053.18
2022-11-12T05:49:26.768Z,1026.40
2022-11-12T05:52:12.269Z,1025.90
2022-11-12T05:54:57.584Z,1009.85
2022-11-12T05:57:43.098Z,1006.28
2022-11-12T06:00:28.564Z,1018.75
2022-11-12T06:03:14.102Z,1007.73
2022-11-12T06:05:59.668Z,1003.78
2022-11-12T06:08:45.046Z,1000.00
2022-11-12T06:11:30.963Z,995.72
2022-11-12T06:14:16.202Z,989.65
2022-11-12T06:17:02.023Z,987.67
2022-11-12T06:19:47.498Z,982.42
2022-11-12T06:22:32.897Z,987.75
2022-11-12T06:25:18.261Z,982.65
2022-11-12T06:28:03.824Z,985.00
2022-11-12T06:30:49.705Z,981.50
2022-11-12T06:33:35.128Z,987.53
2022-11-12T06:36:20.937Z,989.78
2022-11-12T06:39:06.106Z,986.25
2022-11-12T06:41:51.518Z,980.40
2022-11-12T06:44:36.842Z,971.53
2022-11-12T06:47:22.386Z,978.42
2022-11-12T06:50:09.572Z,985.97
2022-11-12T06:52:59.210Z,990.40
2022-11-12T06:55:44.518Z,1000.08
2022-11-12T06:58:30.271Z,979.83
2022-11-12T07:01:17.204Z,970.88
2022-11-12T07:04:03.872Z,977.90
2022-11-12T07:06:49.184Z,972.78
2022-11-12T07:09:34.662Z,975.00
2022-11-12T07:12:20.158Z,969.13
2022-11-12T07:15:06.166Z,972.70
2022-11-12T07:17:51.767Z,969.03
2022-11-12T07:20:38.118Z,974.95
2022-11-12T07:23:24.635Z,972.00
2022-11-12T07:26:14.308Z,970.90
2022-11-12T07:28:59.612Z,967.53
2022-11-12T07:31:45.345Z,967.28
2022-11-12T07:34:31.674Z,973.10
2022-11-12T07:37:17.017Z,969.22
2022-11-12T07:40:03.744Z,966.88
2022-11-12T07:42:49.027Z,974.45
2022-11-12T07:45:34.506Z,967.85
2022-11-12T07:48:20.016Z,964.40
2022-11-12T07:51:07.892Z,969.55
2022-11-12T07:53:59.013Z,974.92
2022-11-12T07:56:44.920Z,969.83
2022-11-12T07:59:30.573Z,968.10
2022-11-12T08:02:16.011Z,975.28
2022-11-12T08:05:01.429Z,973.40
2022-11-12T08:07:46.869Z,967.58
2022-11-12T08:10:32.198Z,975.92
2022-11-12T08:13:17.783Z,985.00
2022-11-12T08:16:03.550Z,977.80
2022-11-12T08:18:48.846Z,982.95
2022-11-12T08:21:34.868Z,980.10
2022-11-12T08:24:20.145Z,982.83
2022-11-12T08:27:05.679Z,972.50
2022-11-12T08:29:51.066Z,970.20
2022-11-12T08:32:36.686Z,971.73
2022-11-12T08:35:21.906Z,978.25
2022-11-12T08:38:09.230Z,974.42
2022-11-12T08:40:54.538Z,981.30
2022-11-12T08:43:41.584Z,970.40
2022-11-12T08:46:27.053Z,973.65
2022-11-12T08:49:12.724Z,967.67
2022-11-12T08:51:58.222Z,964.65
2022-11-12T08:54:43.702Z,979.50
2022-11-12T08:57:29.063Z,973.53
2022-11-12T09:00:14.972Z,966.08
2022-11-12T09:03:01.442Z,973.17
2022-11-12T09:05:47.198Z,977.70
2022-11-12T09:08:34.886Z,974.90
2022-11-12T09:11:20.148Z,972.63
2022-11-12T09:14:05.685Z,974.00
2022-11-12T09:16:51.104Z,971.58
2022-11-12T09:19:40.126Z,991.17
2022-11-12T09:22:28.643Z,989.17
2022-11-12T09:25:14.059Z,972.60
2022-11-12T09:28:07.010Z,977.53
2022-11-12T09:30:54.308Z,972.25
2022-11-12T09:33:39.530Z,973.23
2022-11-12T09:36:25.133Z,971.85
2022-11-12T09:39:10.973Z,980.87
2022-11-12T09:42:01.782Z,983.42
2022-11-12T09:44:59.462Z,986.47
2022-11-12T09:47:51.524Z,987.83
2022-11-12T09:50:41.715Z,983.55
2022-11-12T09:53:47.371Z,984.78
2022-11-12T09:56:32.870Z,984.80
2022-11-12T09:59:19.129Z,986.47
2022-11-12T10:02:19.568Z,977.40
2022-11-12T10:05:31.305Z,979.03
2022-11-12T10:08:26.091Z,979.75
2022-11-12T10:12:04.316Z,973.78
2022-11-12T10:15:23.243Z,980.05
2022-11-12T10:18:29.356Z,975.42
2022-11-12T10:21:35.011Z,972.95
2022-11-12T10:24:22.711Z,978.90
2022-11-12T10:27:16.611Z,977.22
2022-11-12T10:30:10.327Z,968.58
2022-11-12T10:32:55.512Z,978.50
2022-11-12T10:35:41.005Z,975.45
2022-11-12T10:38:28.857Z,975.88
2022-11-12T10:41:27.339Z,980.63
2022-11-12T10:44:15.051Z,978.10
2022-11-12T10:47:18.769Z,975.42
2022-11-12T10:50:19.567Z,973.55
2022-11-12T10:53:08.074Z,975.17
2022-11-12T10:56:02.422Z,978.70
2022-11-12T10:59:09.034Z,978.97
2022-11-12T11:01:57.617Z,976.97
2022-11-12T11:04:44.751Z,985.13
2022-11-12T11:07:30.198Z,964.55
2022-11-12T11:10:28.786Z,973.10
2022-11-12T11:13:23.506Z,978.95
2022-11-12T11:16:15.920Z,976.53
2022-11-12T11:19:05.315Z,982.40
2022-11-12T11:21:50.458Z,979.03
2022-11-12T11:25:03.130Z,984.70
2022-11-12T11:28:08.628Z,974.72
2022-11-12T11:31:04.100Z,977.40
2022-11-12T11:34:17.104Z,978.67
2022-11-12T11:37:28.715Z,981.92
2022-11-12T11:40:26.738Z,983.67
2022-11-12T11:43:15.486Z,984.80
2022-11-12T11:46:40.024Z,984.25
2022-11-12T11:49:34.262Z,978.55
2022-11-12T11:52:53.002Z,988.30
2022-11-12T11:55:48.722Z,981.97
2022-11-12T11:58:39.732Z,977.03
2022-11-12T12:01:58.510Z,982.53
2022-11-12T12:05:08.935Z,976.78
2022-11-12T12:08:02.914Z,965.72
2022-11-12T12:11:13.021Z,982.10
2022-11-12T12:14:10.388Z,973.55
2022-11-12T12:17:18.111Z,980.45
2022-11-12T12:20:17.479Z,972.90
2022-11-12T12:23:50.370Z,977.60
2022-11-12T12:26:43.980Z,982.83
2022-11-12T12:29:40.809Z,980.70
2022-11-12T12:32:59.149Z,979.85
2022-11-12T12:35:59.630Z,972.22
2022-11-12T12:38:48.633Z,971.25
2022-11-12T12:41:50.011Z,974.17
2022-11-12T12:45:03.278Z,981.30
2022-11-12T12:47:49.832Z,975.55
2022-11-12T12:50:38.775Z,975.22
2022-11-12T12:53:27.203Z,982.78
2022-11-12T12:56:15.495Z,976.72
2022-11-12T12:59:08.055Z,973.00
2022-11-12T13:02:02.268Z,975.42
2022-11-12T13:04:53.637Z,978.42
2022-11-12T13:07:43.168Z,977.65
2022-11-12T13:10:47.237Z,973.28
2022-11-12T13:13:38.390Z,964.17
2022-11-12T13:16:50.342Z,966.17
2022-11-12T13:20:10.021Z,969.03
2022-11-12T13:22:55.607Z,964.60
2022-11-12T13:25:41.015Z,966.95
2022-11-12T13:28:26.748Z,967.40
2022-11-12T13:31:29.275Z,966.97
2022-11-12T13:34:21.502Z,963.47
2022-11-12T13:37:18.910Z,975.80
2022-11-12T13:40:09.991Z,976.08
2022-11-12T13:43:02.854Z,978.58
2022-11-12T13:46:11.170Z,980.38
2022-11-12T13:49:03.144Z,982.65
2022-11-12T13:51:52.303Z,971.92
2022-11-12T13:54:38.476Z,975.70
2022-11-12T13:57:24.041Z,977.60
2022-11-12T14:00:17.079Z,980.95
2022-11-12T14:03:06.159Z,977.90
2022-11-12T14:05:52.190Z,975.40
2022-11-12T14:09:12.019Z,973.75
2022-11-12T14:12:15.347Z,970.25
2022-11-12T14:15:31.285Z,976.05
2022-11-12T14:18:44.349Z,968.80
2022-11-12T14:21:29.811Z,970.55
2022-11-12T14:24:14.973Z,974.08
2022-11-12T14:27:00.785Z,977.30
2022-11-12T14:29:45.893Z,973.13
2022-11-12T14:32:39.291Z,971.42
2022-11-12T14:35:31.502Z,970.95
2022-11-12T14:38:36.915Z,966.60
2022-11-12T14:41:33.116Z,970.97
2022-11-12T14:44:22.286Z,972.67
2022-11-12T14:47:09.991Z,968.87
2022-11-12T14:49:55.529Z,971.83
2022-11-12T14:52:43.535Z,972.90
2022-11-12T14:55:35.536Z,978.70
2022-11-12T14:58:23.249Z,974.67
2022-11-12T15:04:51.151Z,971.95
2022-11-12T15:07:51.942Z,971.90
2022-11-12T15:10:43.088Z,965.17
2022-11-12T15:13:37.635Z,968.00
2022-11-12T15:16:28.220Z,968.03
2022-11-12T15:19:26.382Z,964.33
2022-11-12T15:22:22.846Z,971.93
2022-11-12T15:25:31.303Z,970.95
2022-11-12T15:28:25.575Z,965.97
2022-11-12T15:31:21.174Z,962.97
2022-11-12T15:34:27.536Z,961.70
2022-11-12T15:37:25.737Z,966.72
2022-11-12T15:40:20.687Z,962.25
2022-11-12T15:43:14.425Z,968.78
2022-11-12T15:45:59.946Z,969.70
2022-11-12T15:48:45.439Z,965.28
2022-11-12T15:51:30.913Z,965.72
2022-11-12T15:54:16.357Z,965.55
2022-11-12T15:57:01.814Z,961.00
2022-11-12T16:00:03.060Z,971.77
2022-11-12T16:03:17.704Z,966.88
2022-11-12T16:06:08.552Z,962.13
2022-11-12T16:08:54.924Z,962.25
2022-11-12T16:11:40.693Z,973.57
2022-11-12T16:14:26.772Z,973.10
2022-11-12T16:17:14.661Z,969.88
2022-11-12T16:20:01.096Z,973.42
2022-11-12T16:22:46.263Z,972.67
2022-11-12T16:25:34.506Z,976.47
2022-11-12T16:28:19.918Z,975.95
2022-11-12T16:31:06.570Z,972.95
2022-11-12T16:33:52.091Z,976.73
2022-11-12T16:36:38.524Z,965.95
2022-11-12T16:39:23.792Z,973.47
2022-11-12T16:42:12.662Z,973.60
2022-11-12T16:44:58.072Z,970.17
2022-11-12T16:47:45.991Z,965.85
2022-11-12T16:50:32.261Z,972.70
2022-11-12T16:53:17.797Z,972.70
2022-11-12T16:56:03.144Z,973.17
2022-11-12T16:58:49.744Z,973.45
2022-11-12T17:01:35.037Z,976.08
2022-11-12T17:04:21.171Z,963.92
2022-11-12T17:07:06.763Z,986.20
2022-11-12T17:09:52.864Z,969.75
2022-11-12T17:12:38.447Z,978.75
2022-11-12T17:15:23.886Z,981.70
2022-11-12T17:18:10.254Z,973.50
2022-11-12T17:20:55.610Z,979.20
2022-11-12T17:23:42.960Z,980.10
2022-11-12T17:26:28.257Z,980.17
2022-11-12T17:29:13.538Z,974.03
2022-11-12T17:31:59.039Z,974.92
2022-11-12T17:34:44.665Z,979.33
2022-11-12T17:37:30.072Z,979.80
2022-11-12T17:40:15.889Z,979.50
2022-11-12T17:43:01.447Z,977.90
2022-11-12T17:45:54.341Z,979.90
2022-11-12T17:48:39.894Z,978.58
2022-11-12T17:51:27.179Z,982.92
2022-11-12T17:54:12.401Z,977.65
2022-11-12T17:56:58.902Z,983.03
2022-11-12T17:59:44.409Z,981.17
2022-11-12T18:02:29.730Z,981.35
2022-11-12T18:05:15.258Z,982.33
2022-11-12T18:08:00.763Z,980.05
2022-11-12T18:10:46.250Z,972.60
2022-11-12T18:13:31.817Z,987.07
2022-11-12T18:16:25.575Z,979.72
2022-11-12T18:19:12.902Z,978.20
2022-11-12T18:21:58.901Z,982.22
2022-11-12T18:24:44.835Z,979.10
2022-11-12T18:27:30.198Z,982.85
2022-11-12T18:30:19.245Z,983.75
2022-11-12T18:33:05.834Z,982.72
2022-11-12T18:36:01.215Z,982.70
2022-11-12T18:38:48.304Z,971.63
2022-11-12T18:41:34.035Z,976.22
2022-11-12T18:44:24.738Z,980.47
2022-11-12T18:47:11.163Z,979.10
2022-11-12T18:49:56.466Z,971.75
2022-11-12T18:52:42.101Z,980.33
2022-11-12T18:55:27.415Z,977.93
2022-11-12T18:58:12.885Z,974.80
2022-11-12T19:01:07.082Z,979.15
2022-11-12T19:03:54.510Z,979.78
2022-11-12T19:06:39.864Z,981.60
2022-11-12T19:09:25.461Z,970.88
2022-11-12T19:12:10.746Z,972.58
2022-11-12T19:14:56.242Z,976.05
2022-11-12T19:17:42.719Z,978.88
2022-11-12T19:20:29.718Z,981.83
2022-11-12T19:23:15.398Z,975.70
2022-11-12T19:26:05.690Z,982.58
2022-11-12T19:28:51.267Z,978.53
2022-11-12T19:31:36.816Z,989.22
2022-11-12T19:34:22.329Z,978.38
2022-11-12T19:40:13.620Z,974.70
2022-11-12T19:42:59.030Z,980.83
2022-11-12T19:45:44.755Z,987.22
2022-11-12T19:48:31.243Z,975.15
2022-11-12T19:51:16.767Z,987.65
2022-11-12T19:54:02.399Z,981.70
2022-11-12T19:56:47.501Z,987.97
2022-11-12T19:59:32.880Z,986.50
2022-11-12T20:02:18.257Z,989.63
2022-11-12T20:05:04.441Z,987.37
2022-11-12T20:07:50.429Z,984.03
2022-11-12T20:10:36.331Z,980.53
2022-11-12T20:13:22.170Z,989.40
2022-11-12T20:16:13.721Z,991.70
2022-11-12T20:18:59.691Z,981.63
2022-11-12T20:21:44.868Z,986.15
2022-11-12T20:24:30.396Z,984.78
2022-11-12T20:27:17.444Z,987.45
2022-11-12T20:30:03.406Z,983.60
2022-11-12T20:32:49.100Z,989.58
2022-11-12T20:35:36.236Z,984.65
2022-11-12T20:38:21.732Z,988.20
2022-11-12T20:41:12.066Z,985.83
2022-11-12T20:44:00.188Z,979.63
2022-11-12T20:46:46.105Z,988.30
2022-11-12T20:49:31.571Z,986.23
2022-11-12T20:52:17.139Z,985.15
2022-11-12T20:55:02.638Z,982.17
2022-11-12T20:57:48.178Z,985.53
2022-11-12T21:00:33.819Z,972.90
2022-11-12T21:03:19.389Z,977.65
2022-11-12T21:06:06.435Z,973.28
2022-11-12T21:08:52.110Z,977.30
2022-11-12T21:11:37.683Z,979.83
2022-11-12T21:14:23.026Z,980.97
2022-11-12T21:17:08.775Z,967.05
2022-11-12T21:19:53.897Z,975.80
2022-11-12T21:22:39.495Z,975.50
2022-11-12T21:25:25.359Z,971.58
2022-11-12T21:28:10.696Z,971.67
2022-11-12T21:31:03.279Z,971.42
2022-11-12T21:33:50.407Z,968.70
2022-11-12T21:36:35.868Z,975.63
2022-11-12T21:39:21.397Z,983.75
2022-11-12T21:42:06.604Z,972.40
2022-11-12T21:44:52.079Z,976.17
2022-11-12T21:47:37.859Z,979.17
2022-11-12T21:50:23.076Z,977.22
2022-11-12T21:53:08.669Z,978.42
2022-11-12T21:56:00.363Z,979.05
2022-11-12T21:58:46.512Z,978.72
2022-11-12T22:01:34.314Z,980.38
2022-11-12T22:04:20.114Z,980.50
2022-11-12T22:07:05.804Z,979.25
2022-11-12T22:09:56.327Z,982.87
2022-11-12T22:12:58.682Z,982.47
2022-11-12T22:15:47.219Z,987.43
2022-11-12T22:18:34.207Z,985.50
2022-11-12T22:21:25.336Z,986.42
2022-11-12T22:24:11.770Z,992.38
2022-11-12T22:26:58.949Z,988.17
2022-11-12T22:29:48.145Z,991.10
2022-11-12T22:32:33.569Z,987.35
2022-11-12T22:35:19.432Z,992.20
2022-11-12T22:38:05.060Z,987.67
2022-11-12T22:40:50.438Z,988.80
2022-11-12T22:43:39.016Z,994.78
2022-11-12T22:46:35.775Z,978.50
2022-11-12T22:49:20.996Z,976.33
2022-11-12T22:52:06.684Z,979.58
2022-11-12T22:54:52.263Z,980.35
2022-11-12T22:57:37.690Z,979.80
2022-11-12T23:00:31.423Z,975.92
2022-11-12T23:03:16.766Z,980.95
2022-11-12T23:06:06.294Z,977.03
2022-11-12T23:08:53.696Z,980.05
2022-11-12T23:11:39.232Z,975.60
2022-11-12T23:14:24.780Z,974.88
2022-11-12T23:17:10.690Z,978.60
2022-11-12T23:19:56.026Z,980.30
2022-11-12T23:22:41.537Z,977.63
2022-11-12T23:25:27.118Z,987.47
2022-11-12T23:28:12.450Z,982.38
2022-11-12T23:30:58.222Z,977.17
2022-11-12T23:33:48.895Z,977.85
2022-11-12T23:36:34.326Z,975.30
2022-11-12T23:39:19.824Z,976.65
2022-11-12T23:42:05.207Z,978.75
2022-11-12T23:44:50.670Z,979.42
2022-11-12T23:47:36.627Z,983.15
2022-11-12T23:50:21.925Z,981.63
2022-11-12T23:53:07.549Z,980.53
2022-11-12T23:55:53.516Z,975.50
2022-11-12T23:58:40.172Z,976.25
